Time;durP1;ratioP1;P1;durP2;ratioP2;P2;SDS_P1;SDS_P2;PMS_P1;PMS_P2;Temp;Humidity;BMP_temperature;BMP_pressure;BME280_temperature;BME280_humidity;BME280_pressure;Samples;Min_cycle;Max_cycle;Signal;HPM_P1;HPM_P2
2021/03/08 00:00:49;;;;;;;23.83;14.88;;;;;;;;;;4984024;28;20030;-89
2021/03/08 00:03:41;;;;;;;25.67;15.13;;;;;;;;;;4988222;28;20042;-90
2021/03/08 00:06:26;;;;;;;25.73;14.45;;;;;;;;;;5008806;28;20469;-91
2021/03/08 00:09:41;;;;;;;20.35;14.77;;;;;;;;;;4995963;28;20393;-90
2021/03/08 00:16:31;;;;;;;;;;;;;;;;;;;;;
2021/03/08 00:19:50;;;;;;;22.60;14.13;;;;;;;;;;4949878;28;20047;-90
2021/03/08 00:25:47;;;;;;;22.58;15.05;;;;;;;;;;4958222;28;20509;-89
2021/03/08 00:28:33;;;;;;;21.90;14.82;;;;;;;;;;5008348;28;20050;-90
2021/03/08 00:35:08;;;;;;;25.95;16.83;;;;;;;;;;5012474;28;20078;-91
2021/03/08 00:47:40;;;;;;;22.92;13.60;;;;;;;;;;4977874;28;20026;-88
2021/03/08 00:50:32;;;;;;;23.88;15.00;;;;;;;;;;5007823;28;20061;-88
2021/03/08 00:53:23;;;;;;;21.45;14.52;;;;;;;;;;5013033;28;20022;-88
2021/03/08 00:56:08;;;;;;;21.77;14.15;;;;;;;;;;5012186;28;20034;-88
2021/03/08 00:59:12;;;;;;;23.45;14.77;;;;;;;;;;5006437;28;20057;-90
2021/03/08 01:02:24;;;;;;;20.88;13.25;;;;;;;;;;5008557;28;20424;-92
2021/03/08 01:06:25;;;;;;;;;;;;;;;;;;;;;
2021/03/08 01:09:16;;;;;;;22.55;13.18;;;;;;;;;;4963081;29;20042;-90
2021/03/08 01:12:03;;;;;;;23.88;14.35;;;;;;;;;;4948696;29;20007;-89
2021/03/08 01:15:19;;;;;;;;;;;;;;;;;;;;;
2021/03/08 01:18:16;;;;;;;;;;;;;;;;;;5042166;28;20036;-89
2021/03/08 01:21:30;;;;;;;;;;;;;;;;;;;;;
2021/03/08 01:27:44;;;;;;;22.27;14.02;;;;;;;;;;4857994;29;20041;-92
2021/03/08 01:34:11;;;;;;;19.88;13.02;;;;;;;;;;4971222;28;20011;-89
2021/03/08 01:37:15;;;;;;;20.48;13.63;;;;;;;;;;4963026;28;20030;-89
2021/03/08 01:40:10;;;;;;;21.33;13.90;;;;;;;;;;5010708;28;20030;-88
2021/03/08 01:42:57;;;;;;;20.25;12.18;;;;;;;;;;5020649;28;20049;-90
2021/03/08 01:52:40;;;;;;;19.95;12.30;;;;;;;;;;5005999;28;20053;-88
2021/03/08 01:55:54;;;;;;;19.40;13.15;;;;;;;;;;5011979;28;20140;-88
2021/03/08 01:58:48;;;;;;;18.65;12.98;;;;;;;;;;5010756;28;20029;-88
2021/03/08 02:05:34;;;;;;;20.35;12.60;;;;;;;;;;4996609;28;20033;-91
2021/03/08 02:08:23;;;;;;;22.50;14.40;;;;;;;;;;5014993;28;20034;-93
2021/03/08 02:11:40;;;;;;;22.40;12.73;;;;;;;;;;4997792;28;20033;-92
2021/03/08 02:21:30;;;;;;;18.13;13.02;;;;;;;;;;4929807;28;20034;-91
2021/03/08 02:24:24;;;;;;;20.13;12.80;;;;;;;;;;5019117;28;20017;-90
2021/03/08 02:27:28;;;;;;;19.85;12.88;;;;;;;;;;5022899;28;20032;-90
2021/03/08 02:30:40;;;;;;;18.70;12.52;;;;;;;;;;5025091;28;20502;-92
2021/03/08 02:33:55;;;;;;;20.00;12.55;;;;;;;;;;4990390;28;20041;-89
2021/03/08 02:37:28;;;;;;;21.17;13.43;;;;;;;;;;4993299;28;20046;-91
2021/03/08 02:40:46;;;;;;;20.80;13.02;;;;;;;;;;4985196;28;20128;-90
2021/03/08 02:43:55;;;;;;;20.25;13.63;;;;;;;;;;4996023;28;20046;-89
2021/03/08 03:01:25;;;;;;;;;;;;;;;;;;;;;
2021/03/08 03:04:19;;;;;;;;;;;;;;;;;;;;;
2021/03/08 03:17:43;;;;;;;21.08;13.27;;;;;;;;;;4979763;28;20484;-90
2021/03/08 03:24:31;;;;;;;;;;;;;;;;;;;;;
2021/03/08 03:27:40;;;;;;;20.05;12.80;;;;;;;;;;4921733;29;20035;-89
2021/03/08 03:30:57;;;;;;;20.27;13.07;;;;;;;;;;4934550;28;20019;-89
2021/03/08 03:33:51;;;;;;;17.77;12.13;;;;;;;;;;4994326;28;20428;-90
2021/03/08 03:36:44;;;;;;;21.85;12.90;;;;;;;;;;5021476;28;20057;-91
2021/03/08 03:39:37;;;;;;;19.42;11.80;;;;;;;;;;4995387;28;20499;-91
2021/03/08 03:42:58;;;;;;;;;;;;;;;;;;;;;
2021/03/08 03:56:47;;;;;;;21.17;13.10;;;;;;;;;;4810416;29;20526;-90
2021/03/08 04:03:17;;;;;;;18.67;12.02;;;;;;;;;;4840907;29;20041;-90
2021/03/08 04:05:57;;;;;;;21.50;12.07;;;;;;;;;;4891372;29;20046;-89
2021/03/08 04:08:47;;;;;;;21.77;12.75;;;;;;;;;;5002894;28;20034;-90
2021/03/08 04:11:33;;;;;;;25.20;12.52;;;;;;;;;;5019225;28;20543;-89
2021/03/08 04:14:35;;;;;;;19.17;12.73;;;;;;;;;;5002589;28;20034;-93
2021/03/08 04:21:02;;;;;;;18.58;12.27;;;;;;;;;;4965457;28;20034;-90
2021/03/08 04:24:10;;;;;;;;;;;;;;;;;;;;;
2021/03/08 04:27:24;;;;;;;19.58;11.55;;;;;;;;;;5019809;28;20022;-91
2021/03/08 04:30:31;;;;;;;;;;;;;;;;;;;;;
2021/03/08 04:36:56;;;;;;;;;;;;;;;;;;;;;
2021/03/08 04:39:57;;;;;;;;;;;;;;;;;;;;;
2021/03/08 04:42:46;;;;;;;19.58;13.45;;;;;;;;;;5033207;28;20033;-91
2021/03/08 04:45:41;;;;;;;19.40;11.35;;;;;;;;;;5030059;28;20062;-90
2021/03/08 04:48:30;;;;;;;18.85;11.90;;;;;;;;;;5030208;28;20033;-89
2021/03/08 04:51:27;;;;;;;18.70;10.73;;;;;;;;;;5025833;28;20062;-90
2021/03/08 04:57:51;;;;;;;19.92;12.15;;;;;;;;;;5032988;28;20033;-90
2021/03/08 05:07:22;;;;;;;18.08;11.05;;;;;;;;;;5019169;28;20036;-91
2021/03/08 05:10:46;;;;;;;25.23;13.00;;;;;;;;;;5008669;28;20033;-90
2021/03/08 05:17:56;;;;;;;;;;;;;;;;;;;;;
2021/03/08 05:20:45;;;;;;;21.42;12.90;;;;;;;;;;4914916;29;20043;-90
2021/03/08 05:26:54;;;;;;;20.35;12.48;;;;;;;;;;4918818;28;20035;-88
2021/03/08 05:33:22;;;;;;;21.67;13.20;;;;;;;;;;5023362;28;20033;-90
2021/03/08 05:39:49;;;;;;;23.13;12.23;;;;;;;;;;4987766;28;20720;-89
2021/03/08 05:42:41;;;;;;;20.27;12.00;;;;;;;;;;4975361;28;20084;-91
2021/03/08 05:46:04;;;;;;;;;;;;;;;;;;;;;
2021/03/08 05:49:18;;;;;;;21.27;12.77;;;;;;;;;;5005195;28;20496;-90
2021/03/08 05:52:12;;;;;;;21.15;13.68;;;;;;;;;;5023021;28;20044;-88
2021/03/08 06:13:08;;;;;;;21.25;13.55;;;;;;;;;;4852124;29;20070;-91
2021/03/08 06:22:50;;;;;;;24.15;14.07;;;;;;;;;;4821453;29;20396;-89
2021/03/08 06:49:35;;;;;;;;;;;;;;;;;;;;;
2021/03/08 07:09:13;;;;;;;;;;;;;;;;;;;;;
2021/03/08 07:12:17;;;;;;;27.55;17.17;;;;;;;;;;4943402;29;20042;-93
2021/03/08 07:15:04;;;;;;;24.95;16.35;;;;;;;;;;5012943;28;20022;-88
2021/03/08 07:17:49;;;;;;;21.13;14.93;;;;;;;;;;4989400;28;20160;-84
2021/03/08 07:24:23;;;;;;;24.98;15.65;;;;;;;;;;5003142;28;20629;-85
2021/03/08 07:27:12;;;;;;;28.50;16.52;;;;;;;;;;5021545;28;20022;-85
2021/03/08 07:30:06;;;;;;;28.90;16.23;;;;;;;;;;5004530;28;20396;-83
2021/03/08 07:33:09;;;;;;;26.40;15.63;;;;;;;;;;4998424;28;22465;-83
2021/03/08 07:36:00;;;;;;;24.08;15.95;;;;;;;;;;5004244;28;20026;-84
2021/03/08 07:38:46;;;;;;;25.02;16.92;;;;;;;;;;5015248;28;20026;-86
2021/03/08 07:41:31;;;;;;;24.02;15.27;;;;;;;;;;5008050;28;20038;-87
2021/03/08 07:44:32;;;;;;;25.10;15.32;;;;;;;;;;4991249;28;20085;-88
2021/03/08 07:47:21;;;;;;;22.48;15.13;;;;;;;;;;4994773;28;20106;-82
2021/03/08 07:50:28;;;;;;;94.20;53.73;;;;;;;;;;4990842;28;20110;-87
2021/03/08 07:53:59;;;;;;;;;;;;;;;;;;;;;
2021/03/08 07:57:00;;;;;;;29.45;18.13;;;;;;;;;;5045100;28;20030;-85
2021/03/08 07:59:57;;;;;;;27.67;16.92;;;;;;;;;;5035860;28;20037;-85
2021/03/08 08:02:42;;;;;;;24.73;16.60;;;;;;;;;;5035688;28;20040;-86
2021/03/08 08:09:01;;;;;;;29.00;17.05;;;;;;;;;;4966408;28;20066;-84
2021/03/08 08:12:07;;;;;;;23.73;16.40;;;;;;;;;;5039902;28;20436;-88
2021/03/08 08:15:28;;;;;;;26.25;16.63;;;;;;;;;;5027491;28;20117;-88
2021/03/08 08:18:21;;;;;;;25.90;16.95;;;;;;;;;;5033630;28;20022;-87
2021/03/08 08:24:26;;;;;;;28.30;16.52;;;;;;;;;;5036460;28;20029;-87
2021/03/08 08:27:15;;;;;;;25.70;15.02;;;;;;;;;;5050489;28;20017;-88
2021/03/08 08:30:00;;;;;;;22.45;14.60;;;;;;;;;;5034087;28;20079;-85
2021/03/08 08:32:47;;;;;;;24.08;15.55;;;;;;;;;;5016276;28;20503;-85
2021/03/08 08:35:33;;;;;;;21.85;14.18;;;;;;;;;;5036843;28;20709;-83
2021/03/08 08:38:20;;;;;;;22.25;15.80;;;;;;;;;;5023026;28;20026;-89
2021/03/08 08:41:16;;;;;;;33.42;20.92;;;;;;;;;;5017533;28;20099;-86
2021/03/08 08:44:14;;;;;;;23.65;15.77;;;;;;;;;;5022950;28;20034;-87
2021/03/08 08:47:19;;;;;;;22.33;14.27;;;;;;;;;;5005030;28;20027;-88
2021/03/08 08:50:08;;;;;;;21.10;13.93;;;;;;;;;;5018453;28;20026;-87
2021/03/08 08:52:54;;;;;;;23.40;14.45;;;;;;;;;;5021780;28;20043;-87
2021/03/08 08:55:43;;;;;;;22.05;14.38;;;;;;;;;;5019364;28;20034;-89
2021/03/08 08:58:29;;;;;;;23.85;15.25;;;;;;;;;;5020533;28;20037;-89
2021/03/08 09:01:17;;;;;;;20.45;14.27;;;;;;;;;;5036953;28;20021;-88
2021/03/08 09:04:07;;;;;;;25.00;14.02;;;;;;;;;;5029670;28;20030;-89
2021/03/08 09:06:57;;;;;;;22.10;14.82;;;;;;;;;;5038021;28;20033;-91
2021/03/08 09:09:42;;;;;;;20.55;15.77;;;;;;;;;;5024770;28;20029;-88
2021/03/08 09:12:37;;;;;;;19.40;13.82;;;;;;;;;;5013390;28;20704;-86
2021/03/08 09:15:26;;;;;;;20.63;13.57;;;;;;;;;;5011421;28;20034;-88
2021/03/08 09:18:12;;;;;;;19.40;14.27;;;;;;;;;;5009469;28;20036;-89
2021/03/08 09:21:16;;;;;;;18.00;14.23;;;;;;;;;;5005870;28;20045;-88
2021/03/08 09:24:21;;;;;;;20.35;14.38;;;;;;;;;;5015229;28;20026;-87
2021/03/08 09:27:07;;;;;;;21.27;14.75;;;;;;;;;;5000499;28;20013;-85
2021/03/08 09:29:53;;;;;;;20.83;13.55;;;;;;;;;;5008990;28;20104;-89
2021/03/08 09:33:19;;;;;;;16.92;12.98;;;;;;;;;;5014824;28;20014;-84
2021/03/08 09:36:04;;;;;;;19.10;13.30;;;;;;;;;;5020402;28;20024;-89
2021/03/08 09:38:53;;;;;;;18.20;14.15;;;;;;;;;;5024244;28;20084;-89
2021/03/08 09:41:39;;;;;;;17.77;12.65;;;;;;;;;;5016366;28;20033;-87
2021/03/08 09:44:38;;;;;;;16.92;12.63;;;;;;;;;;5005117;28;20413;-87
2021/03/08 09:47:36;;;;;;;18.45;13.40;;;;;;;;;;5010157;28;20036;-89
2021/03/08 09:50:33;;;;;;;19.02;11.98;;;;;;;;;;5008451;28;20068;-87
2021/03/08 09:53:18;;;;;;;15.05;13.07;;;;;;;;;;5005508;28;20105;-88
2021/03/08 09:56:13;;;;;;;20.40;18.42;;;;;;;;;;5011525;28;20030;-90
2021/03/08 09:59:02;;;;;;;27.73;25.05;;;;;;;;;;4997577;28;20114;-90
2021/03/08 10:01:52;;;;;;;55.45;51.80;;;;;;;;;;5022991;28;20025;-89
2021/03/08 10:04:43;;;;;;;50.17;46.60;;;;;;;;;;5023048;28;20022;-91
2021/03/08 10:07:28;;;;;;;56.67;53.15;;;;;;;;;;4997195;28;20048;-90
2021/03/08 10:10:17;;;;;;;203.30;192.02;;;;;;;;;;5011364;28;20022;-92
2021/03/08 10:13:06;;;;;;;169.80;160.10;;;;;;;;;;5011559;28;20037;-88
2021/03/08 10:15:57;;;;;;;85.28;80.70;;;;;;;;;;5024027;28;20032;-88
2021/03/08 10:18:42;;;;;;;1999.90;999.90;;;;;;;;;;5006573;28;20103;-88
2021/03/08 10:21:28;;;;;;;1999.90;999.90;;;;;;;;;;5022710;28;20022;-91
2021/03/08 10:24:31;;;;;;;1999.90;999.90;;;;;;;;;;5011648;28;20022;-88
2021/03/08 10:27:17;;;;;;;1999.90;999.90;;;;;;;;;;5024546;28;20038;-89
2021/03/08 10:30:03;;;;;;;1999.90;999.90;;;;;;;;;;5023576;28;20518;-91
2021/03/08 10:36:13;;;;;;;1999.90;999.90;;;;;;;;;;4992491;28;20384;-94
2021/03/08 10:47:15;;;;;;;59.97;56.63;;;;;;;;;;5298617;23;20556;-90
2021/03/08 10:50:12;;;;;;;142.50;135.27;;;;;;;;;;4994222;28;20040;-89
2021/03/08 10:53:17;;;;;;;223.35;210.02;;;;;;;;;;5012510;28;20041;-88
2021/03/08 10:56:34;;;;;;;399.25;377.65;;;;;;;;;;5012215;28;20030;-88
2021/03/08 11:18:11;;;;;;;21.65;15.75;;;;;;;;;;4796139;29;20041;-91
2021/03/08 11:21:24;;;;;;;13.88;9.25;;;;;;;;;;4779666;30;20054;-92
2021/03/08 11:24:18;;;;;;;10.77;7.90;;;;;;;;;;4850141;29;20028;-91
2021/03/08 11:27:23;;;;;;;12.00;8.80;;;;;;;;;;4934964;29;20036;-92
2021/03/08 11:30:10;;;;;;;13.70;8.63;;;;;;;;;;4903453;29;20418;-84
2021/03/08 11:33:08;;;;;;;14.07;9.70;;;;;;;;;;4902782;29;20028;-87
2021/03/08 11:36:14;;;;;;;12.25;8.38;;;;;;;;;;5003003;28;20497;-89
2021/03/08 11:39:05;;;;;;;14.93;10.10;;;;;;;;;;4991519;28;20034;-87
2021/03/08 11:41:53;;;;;;;13.35;9.35;;;;;;;;;;5008903;28;20029;-89
2021/03/08 11:44:38;;;;;;;13.70;9.52;;;;;;;;;;5006178;28;20025;-83
2021/03/08 11:47:23;;;;;;;14.43;9.95;;;;;;;;;;4996261;28;20046;-85
2021/03/08 11:50:09;;;;;;;13.05;10.38;;;;;;;;;;4982133;28;20381;-83
2021/03/08 11:52:54;;;;;;;19.38;10.88;;;;;;;;;;5001552;28;20108;-84
2021/03/08 11:55:40;;;;;;;17.50;10.27;;;;;;;;;;4987242;28;20134;-82
2021/03/08 11:58:26;;;;;;;17.33;9.82;;;;;;;;;;4988301;28;20026;-83
2021/03/08 12:01:11;;;;;;;13.77;9.07;;;;;;;;;;5000412;28;20018;-83
2021/03/08 12:03:56;;;;;;;15.48;9.68;;;;;;;;;;5001818;28;20481;-83
2021/03/08 12:06:41;;;;;;;14.00;10.20;;;;;;;;;;4998615;28;20125;-83
2021/03/08 12:09:27;;;;;;;12.90;9.68;;;;;;;;;;4988920;28;20080;-83
2021/03/08 12:12:12;;;;;;;13.93;10.27;;;;;;;;;;4999570;28;20084;-83
2021/03/08 12:14:57;;;;;;;12.38;9.27;;;;;;;;;;5001961;28;20076;-84
2021/03/08 12:17:43;;;;;;;13.77;9.40;;;;;;;;;;4990585;28;20037;-84
2021/03/08 12:20:28;;;;;;;13.50;10.10;;;;;;;;;;5003235;28;20034;-83
2021/03/08 12:23:13;;;;;;;13.50;9.75;;;;;;;;;;4988258;28;20048;-83
2021/03/08 12:25:59;;;;;;;14.45;9.52;;;;;;;;;;5000032;28;20033;-82
2021/03/08 12:28:44;;;;;;;15.52;8.65;;;;;;;;;;4988154;28;20022;-85
2021/03/08 12:31:29;;;;;;;15.20;10.23;;;;;;;;;;5003252;28;20067;-85
2021/03/08 12:34:15;;;;;;;15.30;10.93;;;;;;;;;;5002792;28;20034;-81
2021/03/08 12:37:00;;;;;;;12.75;9.85;;;;;;;;;;4986189;28;20030;-85
2021/03/08 12:39:45;;;;;;;14.57;9.48;;;;;;;;;;5000523;28;20486;-83
2021/03/08 12:42:31;;;;;;;14.70;9.50;;;;;;;;;;4985775;28;20448;-83
2021/03/08 12:45:16;;;;;;;13.15;8.75;;;;;;;;;;4987476;28;20643;-84
2021/03/08 12:48:01;;;;;;;12.18;8.60;;;;;;;;;;4983594;28;20054;-82
2021/03/08 12:50:48;;;;;;;12.23;8.70;;;;;;;;;;5002284;28;20022;-82
2021/03/08 12:53:33;;;;;;;12.25;9.18;;;;;;;;;;4975754;28;20537;-83
2021/03/08 12:56:18;;;;;;;11.25;8.30;;;;;;;;;;4988165;28;20026;-80
2021/03/08 12:59:03;;;;;;;13.50;9.45;;;;;;;;;;4999208;28;20109;-82
2021/03/08 13:01:49;;;;;;;11.82;8.93;;;;;;;;;;5000066;28;20149;-82
2021/03/08 13:04:34;;;;;;;15.00;10.68;;;;;;;;;;5004539;28;20034;-83
2021/03/08 13:07:19;;;;;;;12.80;10.15;;;;;;;;;;4987541;28;20022;-82
2021/03/08 13:10:05;;;;;;;12.02;9.07;;;;;;;;;;4985244;28;20029;-83
2021/03/08 13:12:50;;;;;;;14.30;8.60;;;;;;;;;;4987270;28;20485;-84
2021/03/08 13:15:36;;;;;;;12.07;8.32;;;;;;;;;;4998051;28;20137;-82
2021/03/08 13:18:21;;;;;;;14.30;8.85;;;;;;;;;;4985727;28;20041;-84
2021/03/08 13:21:07;;;;;;;13.25;9.23;;;;;;;;;;4996978;28;20029;-89
2021/03/08 13:23:52;;;;;;;14.50;9.25;;;;;;;;;;4994189;28;20026;-89
2021/03/08 13:26:38;;;;;;;12.00;8.88;;;;;;;;;;5008192;28;20037;-88
2021/03/08 13:29:23;;;;;;;14.32;9.63;;;;;;;;;;4990988;28;20057;-89
2021/03/08 13:32:08;;;;;;;12.73;9.43;;;;;;;;;;4989556;28;20117;-91
2021/03/08 13:34:54;;;;;;;13.93;9.50;;;;;;;;;;5004219;28;20045;-88
2021/03/08 13:37:40;;;;;;;12.43;8.50;;;;;;;;;;5007859;28;20049;-92
2021/03/08 13:45:31;;;;;;;13.65;9.07;;;;;;;;;;4991965;28;20054;-87
2021/03/08 13:48:37;;;;;;;11.45;8.98;;;;;;;;;;4970412;28;20018;-86
2021/03/08 13:51:22;;;;;;;15.13;9.20;;;;;;;;;;4987797;28;20612;-83
2021/03/08 13:54:10;;;;;;;14.07;9.93;;;;;;;;;;4985228;28;20140;-86
2021/03/08 13:56:55;;;;;;;13.45;9.77;;;;;;;;;;5002416;28;20088;-86
2021/03/08 13:59:44;;;;;;;13.68;9.57;;;;;;;;;;4987749;28;20700;-89
2021/03/08 14:02:32;;;;;;;12.45;8.60;;;;;;;;;;4973660;28;20018;-87
2021/03/08 14:05:20;;;;;;;10.90;8.63;;;;;;;;;;4988011;28;20041;-84
2021/03/08 14:08:06;;;;;;;14.48;9.15;;;;;;;;;;4987834;28;20129;-88
2021/03/08 14:10:51;;;;;;;13.63;9.63;;;;;;;;;;4988765;28;20026;-87
2021/03/08 14:13:36;;;;;;;13.05;9.57;;;;;;;;;;4990245;28;20029;-87
2021/03/08 14:16:24;;;;;;;13.05;9.48;;;;;;;;;;4991594;28;20022;-89
2021/03/08 14:19:15;;;;;;;12.65;9.43;;;;;;;;;;4990944;28;20117;-89
2021/03/08 14:22:00;;;;;;;12.20;8.57;;;;;;;;;;4989520;28;20041;-88
2021/03/08 14:24:51;;;;;;;12.55;8.60;;;;;;;;;;4982338;28;20022;-87
2021/03/08 14:27:40;;;;;;;19.63;13.18;;;;;;;;;;4985593;28;20038;-88
2021/03/08 14:31:03;;;;;;;22.60;15.55;;;;;;;;;;4984441;28;20122;-87
2021/03/08 14:34:06;;;;;;;15.75;8.50;;;;;;;;;;4938408;28;20027;-85
2021/03/08 14:40:37;;;;;;;13.13;8.60;;;;;;;;;;5132618;23;20287;-90
2021/03/08 14:43:52;;;;;;;12.40;9.10;;;;;;;;;;5026433;28;20033;-88
2021/03/08 14:49:53;;;;;;;;;;;;;;;;;;5004205;28;20034;-87
2021/03/08 14:52:41;;;;;;;14.50;9.60;;;;;;;;;;4966456;28;19909;-86
2021/03/08 14:56:21;;;;;;;;;;;;;;;;;;;;;
2021/03/08 14:59:13;;;;;;;14.15;8.95;;;;;;;;;;4995327;28;20042;-85
2021/03/08 15:02:17;;;;;;;;;;;;;;;;;;;;;
2021/03/08 15:05:06;;;;;;;16.83;11.75;;;;;;;;;;5000861;28;20113;-88
2021/03/08 15:11:10;;;;;;;13.30;8.85;;;;;;;;;;5023816;28;20021;-85
2021/03/08 15:14:03;;;;;;;12.32;7.72;;;;;;;;;;5021004;28;20037;-86
2021/03/08 15:16:50;;;;;;;10.98;7.80;;;;;;;;;;4994740;28;20034;-87
2021/03/08 15:19:45;;;;;;;10.55;7.72;;;;;;;;;;5007865;28;20038;-87
2021/03/08 15:22:54;;;;;;;12.02;7.70;;;;;;;;;;5029837;28;20089;-88
2021/03/08 15:25:48;;;;;;;12.38;7.68;;;;;;;;;;5009446;28;20030;-87
2021/03/08 15:28:56;;;;;;;13.23;7.85;;;;;;;;;;4981711;28;20042;-87
2021/03/08 15:38:59;;;;;;;13.40;7.25;;;;;;;;;;4899273;29;20213;-87
2021/03/08 15:45:41;;;;;;;;;;;;;;;;;;;;;
2021/03/08 15:48:28;;;;;;;13.65;8.43;;;;;;;;;;4986294;28;20026;-90
2021/03/08 15:51:32;;;;;;;12.30;7.68;;;;;;;;;;4996223;28;20077;-92
2021/03/08 15:54:27;;;;;;;13.52;7.80;;;;;;;;;;4988765;28;20169;-91
2021/03/08 15:57:36;;;;;;;14.93;7.55;;;;;;;;;;4993974;28;20116;-90
2021/03/08 16:01:06;;;;;;;;;;;;;;;;;;;;;
2021/03/08 16:03:59;;;;;;;9.77;6.68;;;;;;;;;;4959157;28;20038;-88
2021/03/08 16:11:01;;;;;;;12.25;6.90;;;;;;;;;;4989907;28;20025;-89
2021/03/08 16:13:56;;;;;;;16.05;7.90;;;;;;;;;;4972667;28;20035;-85
2021/03/08 16:16:44;;;;;;;10.45;6.72;;;;;;;;;;4991275;28;20077;-86
2021/03/08 16:19:53;;;;;;;23.77;16.17;;;;;;;;;;4987377;28;20026;-92
2021/03/08 16:23:11;;;;;;;11.23;7.43;;;;;;;;;;4966987;28;20030;-89
2021/03/08 16:36:15;;;;;;;;;;;;;;;;;;;;;
2021/03/08 17:31:07;;;;;;;12.32;7.40;;;;;;;;;;4976683;28;20108;-88
2021/03/08 17:34:13;;;;;;;15.73;7.18;;;;;;;;;;4929831;29;20387;-90
2021/03/08 18:05:33;;;;;;;12.73;6.57;;;;;;;;;;5544553;23;20060;-90
2021/03/08 18:08:58;;;;;;;;;;;;;;;;;;;;;
2021/03/08 18:15:30;;;;;;;18.55;6.60;;;;;;;;;;4947297;28;20030;-87
2021/03/08 18:18:18;;;;;;;10.27;6.63;;;;;;;;;;5022513;28;20052;-86
2021/03/08 18:24:55;;;;;;;12.40;6.72;;;;;;;;;;5001291;28;20103;-88
2021/03/08 18:31:01;;;;;;;21.70;12.75;;;;;;;;;;5028612;28;20018;-85
2021/03/08 18:34:15;;;;;;;13.52;7.22;;;;;;;;;;5046065;28;20018;-89
2021/03/08 18:37:09;;;;;;;16.88;7.05;;;;;;;;;;5034204;28;20559;-90
2021/03/08 18:43:34;;;;;;;;;;;;;;;;;;;;;
2021/03/08 19:00:43;;;;;;;11.32;6.75;;;;;;;;;;4870390;29;20032;-90
2021/03/08 19:17:41;;;;;;;13.20;8.00;;;;;;;;;;4907639;29;20058;-86
2021/03/08 19:20:32;;;;;;;16.58;8.85;;;;;;;;;;4903641;29;20043;-87
2021/03/08 19:23:17;;;;;;;20.48;10.00;;;;;;;;;;4946758;28;20033;-91
2021/03/08 19:26:25;;;;;;;16.25;8.77;;;;;;;;;;5051342;28;20049;-88
2021/03/08 19:29:29;;;;;;;14.35;9.10;;;;;;;;;;5030979;28;20483;-88
2021/03/08 19:32:17;;;;;;;17.95;7.97;;;;;;;;;;5002641;28;20029;-88
2021/03/08 19:35:11;;;;;;;14.75;8.05;;;;;;;;;;5034493;28;20057;-89
2021/03/08 19:38:12;;;;;;;13.45;8.13;;;;;;;;;;5029027;28;20088;-89
2021/03/08 19:40:58;;;;;;;15.23;8.95;;;;;;;;;;5051087;28;20018;-89
2021/03/08 19:47:39;;;;;;;37.35;22.27;;;;;;;;;;5031449;28;20791;-92
2021/03/08 19:50:40;;;;;;;23.23;9.00;;;;;;;;;;4940955;28;20053;-91
2021/03/08 19:55:01;;;;;;;16.25;8.63;;;;;;;;;;4933506;29;20165;-93
2021/03/08 20:01:24;;;;;;;16.80;9.23;;;;;;;;;;5039179;28;20560;-91
2021/03/08 20:07:42;;;;;;;15.68;8.75;;;;;;;;;;4993448;28;20057;-91
2021/03/08 20:10:37;;;;;;;16.33;7.63;;;;;;;;;;5018115;28;20034;-90
2021/03/08 20:13:25;;;;;;;14.95;8.63;;;;;;;;;;5013785;28;20042;-89
2021/03/08 20:16:32;;;;;;;13.13;7.25;;;;;;;;;;5028030;28;20022;-89
2021/03/08 20:19:28;;;;;;;14.20;7.20;;;;;;;;;;5035346;28;20030;-90
2021/03/08 20:22:29;;;;;;;13.63;7.75;;;;;;;;;;5028701;28;20024;-89
2021/03/08 20:36:08;;;;;;;15.35;7.00;;;;;;;;;;5067882;23;20739;-87
2021/03/08 20:38:53;;;;;;;16.38;8.15;;;;;;;;;;5009250;28;20092;-82
2021/03/08 20:41:39;;;;;;;15.32;8.00;;;;;;;;;;4994904;28;20373;-82
2021/03/08 20:44:24;;;;;;;66.53;40.90;;;;;;;;;;5009079;28;20034;-83
2021/03/08 20:47:09;;;;;;;25.90;16.10;;;;;;;;;;5022289;28;20014;-87
2021/03/08 20:49:55;;;;;;;14.82;8.95;;;;;;;;;;5016614;28;20025;-87
2021/03/08 20:52:40;;;;;;;15.38;8.45;;;;;;;;;;5014693;28;20496;-85
2021/03/08 20:55:26;;;;;;;13.38;7.70;;;;;;;;;;5031329;28;20022;-88
2021/03/08 20:58:12;;;;;;;13.30;7.93;;;;;;;;;;5002167;28;20032;-88
2021/03/08 21:00:57;;;;;;;20.83;11.30;;;;;;;;;;5037227;28;20018;-92
2021/03/08 21:03:43;;;;;;;20.60;11.40;;;;;;;;;;5033307;28;20022;-90
2021/03/08 21:06:28;;;;;;;14.27;8.55;;;;;;;;;;5020750;28;20017;-90
2021/03/08 21:09:13;;;;;;;13.70;9.38;;;;;;;;;;5038859;28;20033;-90
2021/03/08 21:11:59;;;;;;;14.93;9.98;;;;;;;;;;5017741;28;20056;-92
2021/03/08 21:14:44;;;;;;;14.32;8.13;;;;;;;;;;5023951;28;20036;-90
2021/03/08 21:17:30;;;;;;;15.25;7.70;;;;;;;;;;5024146;28;20056;-93
2021/03/08 21:20:16;;;;;;;15.82;7.95;;;;;;;;;;5015599;28;20034;-89
2021/03/08 21:23:01;;;;;;;15.98;8.55;;;;;;;;;;5009147;28;20046;-89
2021/03/08 21:25:50;;;;;;;20.30;8.57;;;;;;;;;;5028503;28;20028;-87
2021/03/08 21:28:35;;;;;;;16.58;8.38;;;;;;;;;;4999001;28;20022;-90
2021/03/08 21:31:20;;;;;;;25.45;14.45;;;;;;;;;;5030125;28;20018;-87
